createdAt,value
2022-12-05T16:02:59.556Z,1.00
2022-12-05T16:05:35.426Z,1.20
2022-12-05T16:08:06.108Z,1.27
2022-12-05T16:10:35.300Z,1.20
2022-12-05T16:13:05.922Z,1.30
2022-12-05T16:15:34.584Z,1.30
2022-12-05T16:18:06.181Z,1.50
2022-12-05T16:20:35.612Z,1.40
2022-12-05T16:23:05.961Z,1.30
2022-12-05T16:25:35.815Z,1.20
2022-12-05T16:28:16.760Z,1.30
2022-12-05T16:30:55.843Z,1.30
2022-12-05T16:33:25.697Z,1.40
2022-12-05T16:35:54.260Z,1.50
2022-12-05T16:38:25.885Z,1.40
2022-12-05T16:40:59.436Z,1.40
2022-12-05T16:43:42.078Z,1.30
2022-12-05T16:46:44.743Z,1.40
2022-12-05T16:49:34.774Z,1.33
2022-12-05T16:52:05.293Z,1.43
2022-12-05T16:54:33.282Z,1.40
2022-12-05T16:57:02.420Z,1.33
2022-12-05T16:59:34.320Z,1.30
2022-12-05T17:02:03.732Z,1.40
2022-12-05T17:04:33.278Z,1.40
2022-12-05T17:07:01.361Z,1.50
2022-12-05T17:09:29.309Z,1.50
2022-12-05T17:12:04.264Z,1.60
2022-12-05T17:14:32.455Z,1.40
2022-12-05T17:17:03.416Z,1.50
2022-12-05T17:19:33.357Z,1.40
2022-12-05T17:22:02.168Z,1.20
2022-12-05T17:24:30.171Z,1.50
2022-12-05T17:26:58.159Z,1.40
2022-12-05T17:29:27.984Z,1.50
2022-12-05T17:31:59.202Z,1.50
2022-12-05T17:34:27.475Z,1.43
2022-12-05T17:36:56.906Z,1.70
2022-12-05T17:39:28.250Z,1.60
2022-12-05T17:41:56.965Z,1.40
2022-12-05T17:44:25.211Z,1.43
2022-12-05T17:46:53.233Z,1.50
2022-12-05T17:49:22.874Z,1.50
2022-12-05T17:52:20.557Z,1.40
2022-12-05T17:54:43.225Z,1.30
2022-12-05T17:57:11.235Z,1.50
2022-12-05T17:59:39.274Z,1.50
2022-12-05T18:02:07.887Z,1.43
2022-12-05T18:04:36.822Z,1.47
2022-12-05T18:07:04.957Z,1.50
2022-12-05T18:09:32.960Z,1.60
2022-12-05T18:12:02.344Z,1.60
2022-12-05T18:14:30.936Z,1.43
2022-12-05T18:16:59.243Z,1.50
2022-12-05T18:19:27.321Z,1.60
2022-12-05T18:21:55.329Z,1.60
2022-12-05T18:24:23.397Z,1.63
2022-12-05T18:26:51.422Z,1.80
2022-12-05T18:29:20.810Z,2.00
2022-12-05T18:31:48.803Z,1.80
2022-12-05T18:34:16.853Z,2.03
2022-12-05T18:36:44.887Z,1.70
2022-12-05T18:39:15.048Z,1.90
2022-12-05T18:41:43.351Z,1.90
2022-12-05T18:44:11.521Z,1.90
2022-12-05T18:46:41.099Z,1.80
2022-12-05T18:49:09.257Z,1.70
2022-12-05T18:51:37.258Z,1.70
2022-12-05T18:54:05.461Z,1.70
2022-12-05T18:56:35.194Z,1.90
2022-12-05T18:59:05.088Z,1.73
2022-12-05T19:01:35.222Z,1.60
2022-12-05T19:04:06.501Z,1.80
2022-12-05T19:06:36.928Z,1.60
2022-12-05T19:09:06.996Z,1.80
2022-12-05T19:11:35.524Z,1.90
2022-12-05T19:14:05.563Z,2.00
2022-12-05T19:16:35.588Z,1.70
2022-12-05T19:19:07.135Z,1.77
2022-12-05T19:21:36.596Z,1.80
2022-12-05T19:24:06.916Z,2.00
2022-12-05T19:26:36.140Z,1.70
2022-12-05T19:29:04.865Z,1.70
2022-12-05T19:31:33.278Z,1.90
2022-12-05T19:34:03.597Z,1.90
2022-12-05T19:36:35.595Z,1.90
2022-12-05T19:39:09.141Z,1.83
2022-12-05T19:41:37.832Z,1.77
2022-12-05T19:44:06.724Z,1.90
2022-12-05T19:46:35.273Z,2.00
2022-12-05T19:49:06.591Z,1.93
2022-12-05T19:51:36.591Z,2.10
2022-12-05T19:54:07.185Z,2.43
2022-12-05T19:56:36.571Z,2.07
2022-12-05T19:59:05.982Z,2.03
2022-12-05T20:01:35.574Z,1.87
2022-12-05T20:04:05.577Z,2.10
2022-12-05T20:06:36.839Z,2.00
2022-12-05T20:09:06.348Z,2.00
2022-12-05T20:11:34.797Z,1.90
2022-12-05T20:14:03.480Z,2.37
2022-12-05T20:16:33.864Z,2.10
2022-12-05T20:19:02.262Z,2.30
2022-12-05T20:21:32.209Z,2.10
2022-12-05T20:24:03.341Z,2.30
2022-12-05T20:26:33.835Z,2.40
2022-12-05T20:29:03.524Z,2.30
2022-12-05T20:31:34.018Z,2.30
2022-12-05T20:34:02.689Z,2.40
2022-12-05T20:36:32.224Z,2.40
2022-12-05T20:39:03.630Z,2.30
2022-12-05T20:41:32.234Z,2.27
2022-12-05T20:44:01.611Z,2.53
2022-12-05T20:46:31.764Z,2.50
2022-12-05T20:49:00.457Z,2.30
2022-12-05T20:51:30.614Z,2.50
2022-12-05T20:54:00.345Z,2.50
2022-12-05T20:56:31.750Z,2.37
2022-12-05T20:59:02.283Z,2.30
2022-12-05T21:01:32.391Z,2.50
2022-12-05T21:04:01.622Z,2.60
2022-12-05T21:06:31.515Z,2.80
2022-12-05T21:09:01.635Z,2.50
2022-12-05T21:11:32.220Z,2.70
2022-12-05T21:14:04.927Z,2.60
2022-12-05T21:16:33.125Z,2.60
2022-12-05T21:19:01.407Z,2.70
2022-12-05T21:21:31.303Z,2.80
2022-12-05T21:24:01.231Z,2.60
2022-12-05T21:26:32.305Z,2.50
2022-12-05T21:29:00.965Z,2.10
2022-12-05T21:31:30.956Z,2.40
2022-12-05T21:34:00.477Z,2.60
2022-12-05T21:36:30.633Z,2.50
2022-12-05T21:38:58.786Z,2.10
2022-12-05T21:41:27.038Z,2.30
2022-12-05T21:43:56.490Z,1.87
2022-12-05T21:46:24.653Z,2.30
2022-12-05T21:48:52.902Z,2.40
2022-12-05T21:51:21.284Z,2.30
2022-12-05T21:53:49.975Z,2.40
2022-12-05T21:56:19.782Z,2.40
2022-12-05T21:58:48.573Z,2.50
2022-12-05T22:01:21.433Z,2.33
2022-12-05T22:03:52.839Z,2.40
2022-12-05T22:06:21.026Z,2.10
2022-12-05T22:08:49.074Z,2.40
